Time;durP1;ratioP1;P1;durP2;ratioP2;P2;SDS_P1;SDS_P2;PMS_P1;PMS_P2;Temp;Humidity;BMP_temperature;BMP_pressure;BME280_temperature;BME280_humidity;BME280_pressure;Samples;Min_cycle;Max_cycle;Signal;HPM_P1;HPM_P2
2022/01/06 00:00:10;;;;;;;;;;;;;;;;;;5142774;27;19919;-76
2022/01/06 00:02:36;;;;;;;;;;;;;;;;;;5139041;27;19959;-75
2022/01/06 00:05:01;;;;;;;;;;;;;;;;;;5138802;27;20229;-76
2022/01/06 00:07:28;;;;;;;;;;;;;;;;;;5138780;27;20384;-75
2022/01/06 00:09:53;;;;;;;;;;;;;;;;;;5137275;27;19915;-75
2022/01/06 00:12:23;;;;;;;;;;;;;;;;;;5137651;27;19922;-76
2022/01/06 00:14:59;;;;;;;;;;;;;;;;;;5138636;27;19957;-75
2022/01/06 00:25:30;;;;;;;;;;;;;;;;;;5138387;27;19922;-76
2022/01/06 00:27:55;;;;;;;;;;;;;;;;;;5138373;27;19915;-77
2022/01/06 00:30:21;;;;;;;;;;;;;;;;;;5137392;27;20008;-75
2022/01/06 00:32:46;;;;;;;;;;;;;;;;;;5137135;27;20275;-75
2022/01/06 00:35:12;;;;;;;;;;;;;;;;;;5138239;27;19955;-76
2022/01/06 00:37:37;;;;;;;;;;;;;;;;;;5137937;27;19922;-76
2022/01/06 00:40:03;;;;;;;;;;;;;;;;;;5138389;27;20323;-76
2022/01/06 00:42:28;;;;;;;;;;;;;;;;;;5141641;27;19915;-75
2022/01/06 00:44:54;;;;;;;;;;;;;;;;;;5137062;27;19917;-75
2022/01/06 00:47:20;;;;;;;;;;;;;;;;;;5137973;27;19915;-76
2022/01/06 00:49:46;;;;;;;;;;;;;;;;;;5137934;27;19950;-76
2022/01/06 00:52:11;;;;;;;;;;;;;;;;;;5136594;27;20260;-75
2022/01/06 00:54:36;;;;;;;;;;;;;;;;;;5137831;27;19977;-76
2022/01/06 00:57:02;;;;;;;;;;;;;;;;;;5136930;27;20309;-75
2022/01/06 00:59:27;;;;;;;;;;;;;;;;;;5136454;27;20253;-77
2022/01/06 01:01:53;;;;;;;;;;;;;;;;;;5139933;27;19920;-75
2022/01/06 01:04:18;;;;;;;;;;;;;;;;;;5140150;27;19916;-75
2022/01/06 01:06:43;;;;;;;;;;;;;;;;;;5137366;27;19915;-75
2022/01/06 01:09:08;;;;;;;;;;;;;;;;;;5136356;27;19915;-75
2022/01/06 01:11:34;;;;;;;;;;;;;;;;;;5137540;27;19915;-74
2022/01/06 01:14:16;;;;;;;;;;;;;;;;;;5137443;27;20527;-75
2022/01/06 01:16:41;;;;;;;;;;;;;;;;;;5137421;27;19926;-76
2022/01/06 01:19:10;;;;;;;;;;;;;;;;;;5137373;27;19916;-75
2022/01/06 01:21:35;;;;;;;;;;;;;;;;;;5137286;27;19923;-75
2022/01/06 01:24:01;;;;;;;;;;;;;;;;;;5142906;27;19915;-75
2022/01/06 01:26:26;;;;;;;;;;;;;;;;;;5139082;27;19915;-75
2022/01/06 01:28:52;;;;;;;;;;;;;;;;;;5136206;27;19916;-75
2022/01/06 01:33:43;;;;;;;;;;;;;;;;;;5137685;27;19915;-75
2022/01/06 01:36:09;;;;;;;;;;;;;;;;;;5135007;27;19919;-75
2022/01/06 01:38:36;;;;;;;;;;;;;;;;;;5135869;27;19915;-76
2022/01/06 01:41:02;;;;;;;;;;;;;;;;;;5118782;27;19915;-76
2022/01/06 01:43:27;;;;;;;;;;;;;;;;;;5135744;27;19972;-76
2022/01/06 01:45:58;;;;;;;;;;;;;;;;;;5140729;27;19923;-75
2022/01/06 01:48:31;;;;;;;;;;;;;;;;;;5135536;27;20358;-75
2022/01/06 01:50:57;;;;;;;;;;;;;;;;;;5119181;27;19958;-76
2022/01/06 01:53:22;;;;;;;;;;;;;;;;;;5136667;27;19946;-75
2022/01/06 01:55:47;;;;;;;;;;;;;;;;;;5135509;27;19923;-76
2022/01/06 01:58:13;;;;;;;;;;;;;;;;;;5136601;27;20040;-75
2022/01/06 02:00:38;;;;;;;;;;;;;;;;;;5136473;27;19922;-75
2022/01/06 02:03:04;;;;;;;;;;;;;;;;;;5136413;27;20009;-75
2022/01/06 02:05:29;;;;;;;;;;;;;;;;;;5136277;27;20233;-76
2022/01/06 02:07:56;;;;;;;;;;;;;;;;;;5141440;27;19915;-75
2022/01/06 02:10:21;;;;;;;;;;;;;;;;;;5135466;27;19915;-76
2022/01/06 02:12:48;;;;;;;;;;;;;;;;;;5135476;27;19922;-75
2022/01/06 02:15:14;;;;;;;;;;;;;;;;;;5135603;27;20328;-75
2022/01/06 02:17:39;;;;;;;;;;;;;;;;;;5136331;27;19922;-75
2022/01/06 02:20:09;;;;;;;;;;;;;;;;;;5136076;27;19915;-75
2022/01/06 02:22:34;;;;;;;;;;;;;;;;;;5136462;27;19922;-76
2022/01/06 02:25:29;;;;;;;;;;;;;;;;;;5136500;27;19911;-76
2022/01/06 02:27:54;;;;;;;;;;;;;;;;;;5134510;27;19922;-75
2022/01/06 02:30:20;;;;;;;;;;;;;;;;;;5139065;27;19946;-75
2022/01/06 02:32:45;;;;;;;;;;;;;;;;;;5135786;27;20325;-76
2022/01/06 02:35:12;;;;;;;;;;;;;;;;;;5135273;27;19943;-75
2022/01/06 02:37:37;;;;;;;;;;;;;;;;;;5134790;27;19923;-75
2022/01/06 02:40:06;;;;;;;;;;;;;;;;;;5135862;27;19915;-75
2022/01/06 02:42:32;;;;;;;;;;;;;;;;;;5135958;27;20329;-76
2022/01/06 02:44:58;;;;;;;;;;;;;;;;;;5136248;27;19915;-76
2022/01/06 02:47:23;;;;;;;;;;;;;;;;;;5133726;27;19912;-76
2022/01/06 02:49:48;;;;;;;;;;;;;;;;;;5140708;27;19916;-75
2022/01/06 02:52:13;;;;;;;;;;;;;;;;;;5136011;27;19919;-75
2022/01/06 02:54:39;;;;;;;;;;;;;;;;;;5135844;27;19915;-75
2022/01/06 02:57:04;;;;;;;;;;;;;;;;;;5134560;28;19922;-75
2022/01/06 02:59:30;;;;;;;;;;;;;;;;;;5135654;27;19916;-77
2022/01/06 03:01:55;;;;;;;;;;;;;;;;;;5135384;27;19954;-76
2022/01/06 03:04:23;;;;;;;;;;;;;;;;;;5135735;27;19965;-75
2022/01/06 03:06:48;;;;;;;;;;;;;;;;;;5135750;27;20385;-76
2022/01/06 03:09:14;;;;;;;;;;;;;;;;;;5138283;28;20630;-75
2022/01/06 03:11:42;;;;;;;;;;;;;;;;;;5134486;28;19922;-75
2022/01/06 03:14:08;;;;;;;;;;;;;;;;;;5134823;28;20018;-76
2022/01/06 03:16:33;;;;;;;;;;;;;;;;;;5135617;27;19964;-76
2022/01/06 03:18:59;;;;;;;;;;;;;;;;;;5135593;27;20329;-76
2022/01/06 03:21:24;;;;;;;;;;;;;;;;;;5135559;27;19920;-75
2022/01/06 03:23:49;;;;;;;;;;;;;;;;;;5135594;27;19919;-75
2022/01/06 03:26:15;;;;;;;;;;;;;;;;;;5135861;27;19923;-76
2022/01/06 03:28:40;;;;;;;;;;;;;;;;;;5139734;27;19916;-75
2022/01/06 03:31:05;;;;;;;;;;;;;;;;;;5135568;27;19915;-76
2022/01/06 03:33:31;;;;;;;;;;;;;;;;;;5135500;27;19915;-75
2022/01/06 03:35:56;;;;;;;;;;;;;;;;;;5135519;27;19916;-75
2022/01/06 03:38:21;;;;;;;;;;;;;;;;;;5135367;28;19916;-75
2022/01/06 03:40:47;;;;;;;;;;;;;;;;;;5135380;27;19919;-75
2022/01/06 03:43:12;;;;;;;;;;;;;;;;;;5134404;28;19969;-75
2022/01/06 03:45:38;;;;;;;;;;;;;;;;;;5135151;27;20305;-76
2022/01/06 03:48:06;;;;;;;;;;;;;;;;;;5137986;27;19916;-76
2022/01/06 03:50:31;;;;;;;;;;;;;;;;;;5135894;27;19919;-75
2022/01/06 03:52:57;;;;;;;;;;;;;;;;;;5135785;27;19915;-76
2022/01/06 03:55:23;;;;;;;;;;;;;;;;;;5135834;27;19915;-75
2022/01/06 03:57:48;;;;;;;;;;;;;;;;;;5136432;27;20316;-75
2022/01/06 04:00:14;;;;;;;;;;;;;;;;;;5137617;27;20052;-76
2022/01/06 04:02:40;;;;;;;;;;;;;;;;;;5137586;27;19972;-75
2022/01/06 04:05:05;;;;;;;;;;;;;;;;;;5139146;27;19935;-75
2022/01/06 04:07:32;;;;;;;;;;;;;;;;;;5141750;27;19915;-75
2022/01/06 04:09:57;;;;;;;;;;;;;;;;;;5138964;27;19919;-76
2022/01/06 04:12:23;;;;;;;;;;;;;;;;;;5138727;27;19923;-75
2022/01/06 04:14:48;;;;;;;;;;;;;;;;;;5137411;27;19916;-75
2022/01/06 04:17:13;;;;;;;;;;;;;;;;;;5138575;27;19916;-75
2022/01/06 04:19:39;;;;;;;;;;;;;;;;;;5137233;27;19955;-75
2022/01/06 04:22:05;;;;;;;;;;;;;;;;;;5138861;27;19923;-75
2022/01/06 04:24:30;;;;;;;;;;;;;;;;;;5138474;27;19915;-75
2022/01/06 04:26:56;;;;;;;;;;;;;;;;;;5142223;27;19915;-74
2022/01/06 04:29:21;;;;;;;;;;;;;;;;;;5138981;27;19958;-75
2022/01/06 04:31:46;;;;;;;;;;;;;;;;;;5138336;27;19922;-75
2022/01/06 04:34:12;;;;;;;;;;;;;;;;;;5138258;27;20321;-75
2022/01/06 04:36:39;;;;;;;;;;;;;;;;;;5138126;27;19916;-75
2022/01/06 04:39:04;;;;;;;;;;;;;;;;;;5138106;27;20314;-74
2022/01/06 04:41:29;;;;;;;;;;;;;;;;;;5138181;27;19915;-75
2022/01/06 04:44:13;;;;;;;;;;;;;;;;;;5137830;27;19915;-75
2022/01/06 04:46:39;;;;;;;;;;;;;;;;;;5141183;27;19964;-74
2022/01/06 04:49:04;;;;;;;;;;;;;;;;;;5138149;27;19915;-74
2022/01/06 04:51:30;;;;;;;;;;;;;;;;;;5138270;27;20014;-74
2022/01/06 04:53:55;;;;;;;;;;;;;;;;;;5137709;27;19922;-74
2022/01/06 04:56:21;;;;;;;;;;;;;;;;;;5137776;27;19916;-75
2022/01/06 04:58:46;;;;;;;;;;;;;;;;;;5137552;27;20002;-74
2022/01/06 05:01:11;;;;;;;;;;;;;;;;;;5137551;27;19928;-75
2022/01/06 05:03:37;;;;;;;;;;;;;;;;;;5137739;27;19921;-75
2022/01/06 05:06:02;;;;;;;;;;;;;;;;;;5138963;27;19934;-79
2022/01/06 05:08:28;;;;;;;;;;;;;;;;;;5137565;27;19919;-81
2022/01/06 05:10:53;;;;;;;;;;;;;;;;;;5118526;27;19922;-80
2022/01/06 05:13:18;;;;;;;;;;;;;;;;;;5119028;27;19968;-80
2022/01/06 05:15:44;;;;;;;;;;;;;;;;;;5136777;27;19915;-80
2022/01/06 05:18:09;;;;;;;;;;;;;;;;;;5137712;27;19916;-79
2022/01/06 05:20:37;;;;;;;;;;;;;;;;;;5119144;27;19919;-79
2022/01/06 05:23:02;;;;;;;;;;;;;;;;;;5137348;27;19919;-80
2022/01/06 05:25:30;;;;;;;;;;;;;;;;;;5138369;27;19911;-79
2022/01/06 05:27:55;;;;;;;;;;;;;;;;;;5135906;27;19922;-79
2022/01/06 05:30:21;;;;;;;;;;;;;;;;;;5118874;27;20007;-81
2022/01/06 05:32:46;;;;;;;;;;;;;;;;;;5118734;27;19912;-81
2022/01/06 05:35:11;;;;;;;;;;;;;;;;;;5137441;27;19915;-80
2022/01/06 05:37:37;;;;;;;;;;;;;;;;;;5135642;27;19922;-80
2022/01/06 05:40:02;;;;;;;;;;;;;;;;;;5135423;27;19915;-80
2022/01/06 05:42:28;;;;;;;;;;;;;;;;;;5134634;27;19926;-79
2022/01/06 05:44:53;;;;;;;;;;;;;;;;;;5143062;27;19916;-79
2022/01/06 05:47:18;;;;;;;;;;;;;;;;;;5137289;27;19915;-79
2022/01/06 05:49:44;;;;;;;;;;;;;;;;;;5116140;27;20312;-81
2022/01/06 05:52:09;;;;;;;;;;;;;;;;;;5114400;28;19915;-79
2022/01/06 05:54:35;;;;;;;;;;;;;;;;;;5097061;27;20010;-79
2022/01/06 05:57:00;;;;;;;;;;;;;;;;;;5117259;27;19953;-83
2022/01/06 05:59:28;;;;;;;;;;;;;;;;;;5130099;27;20457;-76
2022/01/06 06:01:54;;;;;;;;;;;;;;;;;;5130074;27;19939;-75
2022/01/06 06:04:19;;;;;;;;;;;;;;;;;;5132414;27;19966;-75
2022/01/06 06:06:44;;;;;;;;;;;;;;;;;;5128575;27;19920;-76
2022/01/06 06:09:10;;;;;;;;;;;;;;;;;;5128626;27;19931;-77
2022/01/06 06:11:35;;;;;;;;;;;;;;;;;;5131345;27;19927;-75
2022/01/06 06:14:00;;;;;;;;;;;;;;;;;;5135453;27;20035;-78
2022/01/06 06:16:26;;;;;;;;;;;;;;;;;;5129120;27;19938;-77
2022/01/06 06:18:51;;;;;;;;;;;;;;;;;;5114143;27;19920;-76
2022/01/06 06:21:17;;;;;;;;;;;;;;;;;;5144964;27;19950;-76
2022/01/06 06:23:43;;;;;;;;;;;;;;;;;;5145994;27;19927;-75
2022/01/06 06:26:08;;;;;;;;;;;;;;;;;;5134160;27;20006;-76
2022/01/06 06:28:34;;;;;;;;;;;;;;;;;;5147901;27;20029;-77
2022/01/06 06:31:00;;;;;;;;;;;;;;;;;;5136073;27;20014;-79
2022/01/06 06:34:16;;;;;;;;;;;;;;;;;;;;;
2022/01/06 06:36:42;;;;;;;;;;;;;;;;;;5066258;28;19923;-77
2022/01/06 06:39:07;;;;;;;;;;;;;;;;;;5107930;28;20006;-77
2022/01/06 06:41:32;;;;;;;;;;;;;;;;;;5093343;28;19950;-75
2022/01/06 06:43:58;;;;;;;;;;;;;;;;;;5112063;28;19920;-76
2022/01/06 06:46:23;;;;;;;;;;;;;;;;;;5096944;28;19931;-76
2022/01/06 06:48:52;;;;;;;;;;;;;;;;;;5109523;28;20515;-81
2022/01/06 06:51:17;;;;;;;;;;;;;;;;;;5107822;28;19927;-82
2022/01/06 06:53:42;;;;;;;;;;;;;;;;;;5090537;28;19923;-77
2022/01/06 06:59:24;;;;;;;;;;;;;;;;;;5080159;28;19954;-79
2022/01/06 07:01:50;;;;;;;;;;;;;;;;;;5102579;28;19920;-79
2022/01/06 07:04:15;;;;;;;;;;;;;;;;;;5102800;28;20250;-78
2022/01/06 07:06:41;;;;;;;;;;;;;;;;;;5106378;28;20007;-79
2022/01/06 07:09:06;;;;;;;;;;;;;;;;;;5100440;28;20014;-75
2022/01/06 07:11:32;;;;;;;;;;;;;;;;;;5108501;28;19919;-74
2022/01/06 07:13:58;;;;;;;;;;;;;;;;;;5101493;28;19927;-77
2022/01/06 07:16:23;;;;;;;;;;;;;;;;;;5108064;28;19920;-76
2022/01/06 07:18:54;;;;;;;;;;;;;;;;;;5086949;28;19964;-78
2022/01/06 07:21:20;;;;;;;;;;;;;;;;;;5111033;28;19927;-77
2022/01/06 07:23:45;;;;;;;;;;;;;;;;;;5104152;28;19922;-79
2022/01/06 07:26:11;;;;;;;;;;;;;;;;;;5108164;28;19950;-77
2022/01/06 07:28:36;;;;;;;;;;;;;;;;;;5108332;28;19923;-77
2022/01/06 07:31:04;;;;;;;;;;;;;;;;;;5085250;28;19977;-76
2022/01/06 07:33:29;;;;;;;;;;;;;;;;;;5111550;28;19920;-76
2022/01/06 07:35:57;;;;;;;;;;;;;;;;;;5090718;28;19920;-76
2022/01/06 07:38:38;;;;;;;;;;;;;;;;;;5096589;28;19930;-78
2022/01/06 07:41:05;;;;;;;;;;;;;;;;;;5118795;27;19953;-80
2022/01/06 07:43:30;;;;;;;;;;;;;;;;;;5116464;28;19927;-78
2022/01/06 07:45:55;;;;;;;;;;;;;;;;;;5116904;28;19915;-79
2022/01/06 07:48:26;;;;;;;;;;;;;;;;;;5101706;28;19916;-78
2022/01/06 07:50:52;;;;;;;;;;;;;;;;;;5121482;28;19927;-77
2022/01/06 07:53:17;;;;;;;;;;;;;;;;;;5083956;28;19915;-78
2022/01/06 07:55:48;;;;;;;;;;;;;;;;;;5101002;28;20010;-78
2022/01/06 07:58:14;;;;;;;;;;;;;;;;;;5101881;28;19923;-77
2022/01/06 08:00:45;;;;;;;;;;;;;;;;;;5110548;28;19951;-79
2022/01/06 08:03:11;;;;;;;;;;;;;;;;;;5088348;28;20006;-79
2022/01/06 08:05:36;;;;;;;;;;;;;;;;;;5084810;28;20324;-77
2022/01/06 08:08:02;;;;;;;;;;;;;;;;;;5100378;28;20028;-78
2022/01/06 08:10:27;;;;;;;;;;;;;;;;;;5097622;28;19916;-79
2022/01/06 08:12:53;;;;;;;;;;;;;;;;;;5096299;28;19924;-78
2022/01/06 08:15:18;;;;;;;;;;;;;;;;;;5097832;28;19958;-77
2022/01/06 08:17:43;;;;;;;;;;;;;;;;;;5116504;28;20245;-76
2022/01/06 08:20:09;;;;;;;;;;;;;;;;;;5121874;28;19981;-77
2022/01/06 08:22:37;;;;;;;;;;;;;;;;;;5085918;28;19916;-78
2022/01/06 08:25:04;;;;;;;;;;;;;;;;;;5102804;28;19939;-78
2022/01/06 08:27:29;;;;;;;;;;;;;;;;;;5114994;28;19949;-79
2022/01/06 08:29:54;;;;;;;;;;;;;;;;;;5100104;28;19916;-77
2022/01/06 08:32:20;;;;;;;;;;;;;;;;;;5118095;28;20357;-78
2022/01/06 08:34:48;;;;;;;;;;;;;;;;;;5117807;28;20357;-77
2022/01/06 08:37:13;;;;;;;;;;;;;;;;;;5106916;28;20325;-79
2022/01/06 08:39:39;;;;;;;;;;;;;;;;;;5096087;28;19923;-81
2022/01/06 08:42:04;;;;;;;;;;;;;;;;;;5075897;28;19916;-81
2022/01/06 08:44:43;;;;;;;;;;;;;;;;;;5094743;28;19912;-82
2022/01/06 08:47:09;;;;;;;;;;;;;;;;;;5077563;28;19923;-81
2022/01/06 08:49:34;;;;;;;;;;;;;;;;;;5093405;28;19920;-83
2022/01/06 08:52:00;;;;;;;;;;;;;;;;;;5105573;28;19932;-83
2022/01/06 08:54:25;;;;;;;;;;;;;;;;;;5098039;28;19981;-80
2022/01/06 08:57:00;;;;;;;;;;;;;;;;;;5100473;28;20526;-83
2022/01/06 08:59:25;;;;;;;;;;;;;;;;;;5105750;28;19959;-83
2022/01/06 09:04:36;;;;;;;;;;;;;;;;;;5073722;28;20127;-78
2022/01/06 09:07:03;;;;;;;;;;;;;;;;;;5095488;28;19941;-79
2022/01/06 09:09:28;;;;;;;;;;;;;;;;;;5115567;28;19915;-78
2022/01/06 09:11:53;;;;;;;;;;;;;;;;;;5108178;28;20257;-79
2022/01/06 09:14:19;;;;;;;;;;;;;;;;;;5113101;28;19920;-83
2022/01/06 09:16:44;;;;;;;;;;;;;;;;;;5086167;28;19951;-85
2022/01/06 09:19:10;;;;;;;;;;;;;;;;;;5086698;28;19917;-84
2022/01/06 09:21:35;;;;;;;;;;;;;;;;;;5078854;28;19927;-83
2022/01/06 09:24:04;;;;;;;;;;;;;;;;;;5098722;28;19956;-83
2022/01/06 09:26:30;;;;;;;;;;;;;;;;;;5079545;28;19916;-83
2022/01/06 09:29:05;;;;;;;;;;;;;;;;;;5079564;28;20234;-82
2022/01/06 09:31:34;;;;;;;;;;;;;;;;;;5078987;28;19923;-85
2022/01/06 09:34:00;;;;;;;;;;;;;;;;;;5094798;28;20434;-83
2022/01/06 09:36:27;;;;;;;;;;;;;;;;;;5079427;28;19922;-77
2022/01/06 09:38:53;;;;;;;;;;;;;;;;;;5077497;28;19923;-79
2022/01/06 09:41:19;;;;;;;;;;;;;;;;;;5092980;28;19923;-77
2022/01/06 09:43:44;;;;;;;;;;;;;;;;;;5109570;28;19920;-79
2022/01/06 09:46:09;;;;;;;;;;;;;;;;;;5075554;28;19924;-79
2022/01/06 09:48:37;;;;;;;;;;;;;;;;;;5104682;28;19924;-79
2022/01/06 09:51:03;;;;;;;;;;;;;;;;;;5082921;28;19979;-79
2022/01/06 09:53:28;;;;;;;;;;;;;;;;;;5061851;28;19951;-80
2022/01/06 09:55:54;;;;;;;;;;;;;;;;;;5092797;28;19920;-78
2022/01/06 09:58:24;;;;;;;;;;;;;;;;;;5105408;28;19942;-80
2022/01/06 10:00:49;;;;;;;;;;;;;;;;;;5127443;28;19938;-81
2022/01/06 10:03:15;;;;;;;;;;;;;;;;;;5117051;28;19916;-81
2022/01/06 10:05:44;;;;;;;;;;;;;;;;;;5124375;28;19926;-81
2022/01/06 10:08:10;;;;;;;;;;;;;;;;;;5105311;28;19920;-79
2022/01/06 10:10:35;;;;;;;;;;;;;;;;;;5084256;28;19923;-81
2022/01/06 10:13:06;;;;;;;;;;;;;;;;;;5118974;28;19919;-79
2022/01/06 10:15:32;;;;;;;;;;;;;;;;;;5097584;28;19908;-79
2022/01/06 10:17:57;;;;;;;;;;;;;;;;;;5110089;28;19916;-81
2022/01/06 10:20:26;;;;;;;;;;;;;;;;;;5102067;28;19920;-80
2022/01/06 10:22:55;;;;;;;;;;;;;;;;;;5105856;28;19916;-83
2022/01/06 10:25:21;;;;;;;;;;;;;;;;;;5101526;28;19916;-81
2022/01/06 10:27:49;;;;;;;;;;;;;;;;;;5097676;28;20539;-81
2022/01/06 10:30:15;;;;;;;;;;;;;;;;;;5081846;28;19916;-81
2022/01/06 10:32:40;;;;;;;;;;;;;;;;;;5115321;28;19945;-81
2022/01/06 10:35:06;;;;;;;;;;;;;;;;;;5097542;28;19999;-80
2022/01/06 10:37:49;;;;;;;;;;;;;;;;;;5084820;28;20002;-83
2022/01/06 10:40:17;;;;;;;;;;;;;;;;;;5112552;28;20321;-80
2022/01/06 10:42:45;;;;;;;;;;;;;;;;;;5094493;28;19920;-81
2022/01/06 10:45:17;;;;;;;;;;;;;;;;;;5116091;28;19923;-80
2022/01/06 10:47:46;;;;;;;;;;;;;;;;;;5115697;28;20435;-81
2022/01/06 10:50:39;;;;;;;;;;;;;;;;;;5114554;28;19920;-79
2022/01/06 10:53:05;;;;;;;;;;;;;;;;;;5109660;28;19916;-80
2022/01/06 10:55:37;;;;;;;;;;;;;;;;;;5102459;28;19964;-81
2022/01/06 10:58:03;;;;;;;;;;;;;;;;;;5082791;28;19915;-80
2022/01/06 11:00:28;;;;;;;;;;;;;;;;;;5113387;28;20003;-80
2022/01/06 11:03:06;;;;;;;;;;;;;;;;;;5113589;28;19916;-82
2022/01/06 11:05:31;;;;;;;;;;;;;;;;;;5095988;28;20107;-82
2022/01/06 11:07:56;;;;;;;;;;;;;;;;;;5080062;28;19915;-78
2022/01/06 11:10:23;;;;;;;;;;;;;;;;;;5118131;28;20320;-77
2022/01/06 11:12:49;;;;;;;;;;;;;;;;;;5118213;28;19916;-77
2022/01/06 11:15:15;;;;;;;;;;;;;;;;;;5090086;28;20373;-77
2022/01/06 11:17:44;;;;;;;;;;;;;;;;;;5118091;28;20006;-78
2022/01/06 11:20:10;;;;;;;;;;;;;;;;;;5100093;28;19922;-79
2022/01/06 11:22:35;;;;;;;;;;;;;;;;;;5084964;28;19916;-86
2022/01/06 11:25:02;;;;;;;;;;;;;;;;;;5106587;28;20010;-84
2022/01/06 11:27:31;;;;;;;;;;;;;;;;;;5103830;28;20002;-87
2022/01/06 11:30:05;;;;;;;;;;;;;;;;;;5122601;28;19915;-83
2022/01/06 11:32:30;;;;;;;;;;;;;;;;;;5125285;28;19927;-84
2022/01/06 11:35:02;;;;;;;;;;;;;;;;;;5132823;28;19987;-82
2022/01/06 11:37:37;;;;;;;;;;;;;;;;;;5125371;28;19920;-82
2022/01/06 11:40:03;;;;;;;;;;;;;;;;;;5080286;28;19952;-81
2022/01/06 11:42:29;;;;;;;;;;;;;;;;;;5077505;28;19916;-78
2022/01/06 11:44:54;;;;;;;;;;;;;;;;;;5093700;28;20299;-78
2022/01/06 11:47:30;;;;;;;;;;;;;;;;;;5094677;28;19916;-78
2022/01/06 11:50:06;;;;;;;;;;;;;;;;;;5096235;28;20014;-79
2022/01/06 11:52:31;;;;;;;;;;;;;;;;;;5096188;28;20391;-77
2022/01/06 11:54:57;;;;;;;;;;;;;;;;;;5090503;28;19917;-77
2022/01/06 11:57:26;;;;;;;;;;;;;;;;;;5097921;28;20352;-79
2022/01/06 11:59:51;;;;;;;;;;;;;;;;;;5097933;28;19972;-78
2022/01/06 12:02:21;;;;;;;;;;;;;;;;;;5115378;28;19919;-79
2022/01/06 12:04:53;;;;;;;;;;;;;;;;;;5098415;28;19935;-78
2022/01/06 12:07:19;;;;;;;;;;;;;;;;;;5115598;28;19922;-79
2022/01/06 12:09:46;;;;;;;;;;;;;;;;;;5116368;28;19912;-77
2022/01/06 12:12:11;;;;;;;;;;;;;;;;;;5099983;28;19920;-79
2022/01/06 12:14:36;;;;;;;;;;;;;;;;;;5085115;28;20370;-79
2022/01/06 12:17:06;;;;;;;;;;;;;;;;;;5094366;28;19965;-77
2022/01/06 12:19:31;;;;;;;;;;;;;;;;;;5094380;28;20210;-82
2022/01/06 12:21:57;;;;;;;;;;;;;;;;;;5081109;28;19977;-82
2022/01/06 12:24:28;;;;;;;;;;;;;;;;;;5078695;28;19916;-81
2022/01/06 12:26:54;;;;;;;;;;;;;;;;;;5078929;28;20302;-77
2022/01/06 12:29:20;;;;;;;;;;;;;;;;;;5077713;28;19916;-79
2022/01/06 12:31:46;;;;;;;;;;;;;;;;;;5100999;28;19990;-76
2022/01/06 12:34:12;;;;;;;;;;;;;;;;;;5014714;28;1935485;-77
2022/01/06 12:36:42;;;;;;;;;;;;;;;;;;5094971;28;19920;-76
2022/01/06 12:39:17;;;;;;;;;;;;;;;;;;5108196;28;19970;-76
2022/01/06 12:41:43;;;;;;;;;;;;;;;;;;5096072;28;20399;-76
2022/01/06 12:44:08;;;;;;;;;;;;;;;;;;5095032;28;20138;-76
2022/01/06 12:46:38;;;;;;;;;;;;;;;;;;5095110;28;19915;-76
2022/01/06 12:49:07;;;;;;;;;;;;;;;;;;5114057;28;19923;-76
2022/01/06 12:51:32;;;;;;;;;;;;;;;;;;5099153;28;19915;-77
2022/01/06 12:53:58;;;;;;;;;;;;;;;;;;5116501;28;20307;-76
2022/01/06 12:56:29;;;;;;;;;;;;;;;;;;5113713;28;19938;-77
2022/01/06 12:58:55;;;;;;;;;;;;;;;;;;5096327;28;19916;-76
2022/01/06 13:01:21;;;;;;;;;;;;;;;;;;5113499;28;19923;-77
2022/01/06 13:03:51;;;;;;;;;;;;;;;;;;5094814;28;19915;-74
2022/01/06 13:06:16;;;;;;;;;;;;;;;;;;5095423;28;19947;-76
2022/01/06 13:09:02;;;;;;;;;;;;;;;;;;5094941;28;19989;-77
2022/01/06 13:11:28;;;;;;;;;;;;;;;;;;5100654;28;20372;-77
2022/01/06 13:13:54;;;;;;;;;;;;;;;;;;5059162;28;19956;-77
2022/01/06 13:16:25;;;;;;;;;;;;;;;;;;5094793;28;20013;-73
2022/01/06 13:18:53;;;;;;;;;;;;;;;;;;5095721;28;19923;-75
2022/01/06 13:21:39;;;;;;;;;;;;;;;;;;5060805;28;20338;-75
2022/01/06 13:24:13;;;;;;;;;;;;;;;;;;5096261;28;19916;-76
2022/01/06 13:26:50;;;;;;;;;;;;;;;;;;5077782;28;19917;-75
2022/01/06 13:29:25;;;;;;;;;;;;;;;;;;5061644;28;19966;-76
2022/01/06 13:32:04;;;;;;;;;;;;;;;;;;5082279;28;19923;-76
2022/01/06 13:34:29;;;;;;;;;;;;;;;;;;5076221;28;20011;-75
2022/01/06 13:37:04;;;;;;;;;;;;;;;;;;5093047;28;19955;-75
2022/01/06 13:39:37;;;;;;;;;;;;;;;;;;5094288;28;19927;-76
2022/01/06 13:42:02;;;;;;;;;;;;;;;;;;5094097;28;19919;-76
2022/01/06 13:44:28;;;;;;;;;;;;;;;;;;5094206;28;20011;-76
2022/01/06 13:47:06;;;;;;;;;;;;;;;;;;5093863;28;19923;-76
2022/01/06 13:52:20;;;;;;;;;;;;;;;;;;5097656;28;19924;-75
2022/01/06 13:54:45;;;;;;;;;;;;;;;;;;5077256;28;19920;-76
2022/01/06 13:57:11;;;;;;;;;;;;;;;;;;5095420;28;19920;-76
2022/01/06 13:59:38;;;;;;;;;;;;;;;;;;5094228;28;20006;-76
2022/01/06 14:02:03;;;;;;;;;;;;;;;;;;5094183;28;19920;-76
2022/01/06 14:04:31;;;;;;;;;;;;;;;;;;5094170;28;19939;-76
2022/01/06 14:06:56;;;;;;;;;;;;;;;;;;5094497;28;20344;-77
2022/01/06 14:09:22;;;;;;;;;;;;;;;;;;5078273;28;19905;-77
2022/01/06 14:11:52;;;;;;;;;;;;;;;;;;5082948;28;19930;-78
2022/01/06 14:14:17;;;;;;;;;;;;;;;;;;5076671;28;19922;-76
2022/01/06 14:16:42;;;;;;;;;;;;;;;;;;5093264;28;19916;-77
2022/01/06 14:19:08;;;;;;;;;;;;;;;;;;5093288;28;19969;-76
2022/01/06 14:21:33;;;;;;;;;;;;;;;;;;5076223;28;19923;-76
2022/01/06 14:23:58;;;;;;;;;;;;;;;;;;5094607;28;19966;-77
2022/01/06 14:26:24;;;;;;;;;;;;;;;;;;5093735;28;19916;-78
2022/01/06 14:28:49;;;;;;;;;;;;;;;;;;5093845;28;19922;-78
2022/01/06 14:31:16;;;;;;;;;;;;;;;;;;5103805;28;19924;-77
2022/01/06 14:33:41;;;;;;;;;;;;;;;;;;5094523;28;19920;-76
2022/01/06 14:36:07;;;;;;;;;;;;;;;;;;5077042;28;19939;-76
2022/01/06 14:38:33;;;;;;;;;;;;;;;;;;5077879;28;19966;-77
2022/01/06 14:40:59;;;;;;;;;;;;;;;;;;5094765;28;20330;-78
2022/01/06 14:43:24;;;;;;;;;;;;;;;;;;5094644;28;19916;-77
2022/01/06 14:45:49;;;;;;;;;;;;;;;;;;5094660;28;19922;-78
2022/01/06 14:48:15;;;;;;;;;;;;;;;;;;5094764;28;19959;-78
2022/01/06 14:50:40;;;;;;;;;;;;;;;;;;5103025;28;19942;-77
2022/01/06 14:53:06;;;;;;;;;;;;;;;;;;5077101;28;20333;-76
2022/01/06 14:55:31;;;;;;;;;;;;;;;;;;5095016;28;19916;-78
2022/01/06 14:57:56;;;;;;;;;;;;;;;;;;5094627;28;19973;-78
2022/01/06 15:00:23;;;;;;;;;;;;;;;;;;5094602;28;19916;-78
2022/01/06 15:02:48;;;;;;;;;;;;;;;;;;5096046;28;19917;-78
2022/01/06 15:05:14;;;;;;;;;;;;;;;;;;5079412;28;19913;-78
2022/01/06 15:07:39;;;;;;;;;;;;;;;;;;5076264;28;19916;-77
2022/01/06 15:10:06;;;;;;;;;;;;;;;;;;5100276;28;19904;-77
2022/01/06 15:12:31;;;;;;;;;;;;;;;;;;5101331;28;20348;-77
2022/01/06 15:14:57;;;;;;;;;;;;;;;;;;5076707;28;19916;-77
2022/01/06 15:17:24;;;;;;;;;;;;;;;;;;5094812;28;19912;-76
2022/01/06 15:19:49;;;;;;;;;;;;;;;;;;5094400;28;19916;-79
2022/01/06 15:22:15;;;;;;;;;;;;;;;;;;5094249;28;20356;-76
2022/01/06 15:24:41;;;;;;;;;;;;;;;;;;5094431;28;20322;-77
2022/01/06 15:27:06;;;;;;;;;;;;;;;;;;5076370;28;19916;-77
2022/01/06 15:29:31;;;;;;;;;;;;;;;;;;5076205;28;19940;-76
2022/01/06 15:31:57;;;;;;;;;;;;;;;;;;5105696;28;20004;-77
2022/01/06 15:34:22;;;;;;;;;;;;;;;;;;5076292;28;19920;-78
2022/01/06 15:36:47;;;;;;;;;;;;;;;;;;5075817;28;19989;-77
2022/01/06 15:39:13;;;;;;;;;;;;;;;;;;5094071;28;19923;-78
2022/01/06 15:41:38;;;;;;;;;;;;;;;;;;5076271;28;19916;-78
2022/01/06 15:44:04;;;;;;;;;;;;;;;;;;5093223;28;19923;-76
2022/01/06 15:46:29;;;;;;;;;;;;;;;;;;5092995;28;19916;-76
2022/01/06 15:48:55;;;;;;;;;;;;;;;;;;5094183;28;19923;-76
2022/01/06 15:51:20;;;;;;;;;;;;;;;;;;5097112;28;19920;-79
2022/01/06 15:53:46;;;;;;;;;;;;;;;;;;5096582;28;20322;-76
2022/01/06 15:56:11;;;;;;;;;;;;;;;;;;5098156;28;20003;-78
2022/01/06 15:58:37;;;;;;;;;;;;;;;;;;5096658;28;20337;-76
2022/01/06 16:06:18;;;;;;;;;;;;;;;;;;5096613;28;19923;-77
2022/01/06 16:08:43;;;;;;;;;;;;;;;;;;5096429;28;19979;-77
2022/01/06 16:11:09;;;;;;;;;;;;;;;;;;5082585;28;19916;-80
2022/01/06 16:13:34;;;;;;;;;;;;;;;;;;5087212;28;19949;-77
2022/01/06 16:16:00;;;;;;;;;;;;;;;;;;5097569;28;20256;-78
2022/01/06 16:18:25;;;;;;;;;;;;;;;;;;5079627;28;19920;-76
2022/01/06 16:20:52;;;;;;;;;;;;;;;;;;5078924;28;19969;-76
2022/01/06 16:23:21;;;;;;;;;;;;;;;;;;5079735;28;19916;-76
2022/01/06 16:25:46;;;;;;;;;;;;;;;;;;5079578;28;20330;-77
2022/01/06 16:28:12;;;;;;;;;;;;;;;;;;5079581;28;19940;-77
2022/01/06 16:30:37;;;;;;;;;;;;;;;;;;5097211;28;20305;-76
2022/01/06 16:33:02;;;;;;;;;;;;;;;;;;5104545;28;20260;-77
2022/01/06 16:35:28;;;;;;;;;;;;;;;;;;5062511;28;20026;-77
2022/01/06 16:37:54;;;;;;;;;;;;;;;;;;5062585;28;19916;-76
2022/01/06 16:40:20;;;;;;;;;;;;;;;;;;5062399;28;19916;-76
2022/01/06 16:42:45;;;;;;;;;;;;;;;;;;5078905;28;19999;-76
2022/01/06 16:45:10;;;;;;;;;;;;;;;;;;5078996;28;19916;-77
2022/01/06 16:47:36;;;;;;;;;;;;;;;;;;5096838;28;19981;-78
2022/01/06 16:50:01;;;;;;;;;;;;;;;;;;5078426;28;20011;-76
2022/01/06 16:52:26;;;;;;;;;;;;;;;;;;5099945;28;20003;-75
2022/01/06 16:54:52;;;;;;;;;;;;;;;;;;5068076;28;19946;-76
2022/01/06 16:57:18;;;;;;;;;;;;;;;;;;5096697;28;20321;-76
2022/01/06 16:59:43;;;;;;;;;;;;;;;;;;5078561;28;19916;-75
2022/01/06 17:02:08;;;;;;;;;;;;;;;;;;5061701;28;20017;-76
2022/01/06 17:04:34;;;;;;;;;;;;;;;;;;5095940;28;19973;-75
2022/01/06 17:06:59;;;;;;;;;;;;;;;;;;5095579;28;19916;-75